sensor_id;sensor_type;location;lat;lon;timestamp;temperature;humidity
49777;DHT22;35673;51.482;7.436;2023-07-13T00:02:14;18.60;66.90
49777;DHT22;35673;51.482;7.436;2023-07-13T00:04:40;18.60;68.60
49777;DHT22;35673;51.482;7.436;2023-07-13T00:07:06;18.60;67.20
49777;DHT22;35673;51.482;7.436;2023-07-13T00:09:32;18.50;67.60
49777;DHT22;35673;51.482;7.436;2023-07-13T00:11:58;18.60;68.40
49777;DHT22;35673;51.482;7.436;2023-07-13T00:14:24;18.40;67.30
49777;DHT22;35673;51.482;7.436;2023-07-13T00:16:50;18.50;67.60
49777;DHT22;35673;51.482;7.436;2023-07-13T00:19:16;18.40;68.00
49777;DHT22;35673;51.482;7.436;2023-07-13T00:21:42;18.40;70.90
49777;DHT22;35673;51.482;7.436;2023-07-13T00:24:08;18.40;67.80
49777;DHT22;35673;51.482;7.436;2023-07-13T00:26:38;18.40;68.10
49777;DHT22;35673;51.482;7.436;2023-07-13T00:29:03;18.60;76.50
49777;DHT22;35673;51.482;7.436;2023-07-13T00:31:30;18.60;68.50
49777;DHT22;35673;51.482;7.436;2023-07-13T00:33:56;18.70;76.10
49777;DHT22;35673;51.482;7.436;2023-07-13T00:36:22;18.60;73.30
49777;DHT22;35673;51.482;7.436;2023-07-13T00:38:47;18.80;76.90
49777;DHT22;35673;51.482;7.436;2023-07-13T00:41:13;18.80;77.40
49777;DHT22;35673;51.482;7.436;2023-07-13T00:43:40;18.80;69.90
49777;DHT22;35673;51.482;7.436;2023-07-13T00:46:17;18.80;79.50
49777;DHT22;35673;51.482;7.436;2023-07-13T00:48:43;18.70;79.70
49777;DHT22;35673;51.482;7.436;2023-07-13T00:51:10;18.80;80.60
49777;DHT22;35673;51.482;7.436;2023-07-13T00:53:36;18.90;79.70
49777;DHT22;35673;51.482;7.436;2023-07-13T00:56:01;19.00;77.80
49777;DHT22;35673;51.482;7.436;2023-07-13T00:58:28;18.90;77.60
49777;DHT22;35673;51.482;7.436;2023-07-13T01:00:53;18.90;76.40
49777;DHT22;35673;51.482;7.436;2023-07-13T01:03:19;18.90;76.30
49777;DHT22;35673;51.482;7.436;2023-07-13T01:05:44;18.90;76.80
49777;DHT22;35673;51.482;7.436;2023-07-13T01:08:12;19.00;77.10
49777;DHT22;35673;51.482;7.436;2023-07-13T01:10:38;18.80;69.60
49777;DHT22;35673;51.482;7.436;2023-07-13T01:13:07;18.70;69.30
49777;DHT22;35673;51.482;7.436;2023-07-13T01:18:05;18.50;69.60
49777;DHT22;35673;51.482;7.436;2023-07-13T01:30:19;18.30;71.70
49777;DHT22;35673;51.482;7.436;2023-07-13T01:32:44;18.40;73.00
49777;DHT22;35673;51.482;7.436;2023-07-13T01:35:10;18.20;73.50
49777;DHT22;35673;51.482;7.436;2023-07-13T01:37:37;18.10;75.20
49777;DHT22;35673;51.482;7.436;2023-07-13T01:42:29;17.90;66.40
49777;DHT22;35673;51.482;7.436;2023-07-13T01:44:55;17.80;67.90
49777;DHT22;35673;51.482;7.436;2023-07-13T01:47:21;17.70;67.30
49777;DHT22;35673;51.482;7.436;2023-07-13T01:49:47;17.70;68.00
49777;DHT22;35673;51.482;7.436;2023-07-13T01:52:13;17.70;68.50
49777;DHT22;35673;51.482;7.436;2023-07-13T01:54:38;17.70;68.30
49777;DHT22;35673;51.482;7.436;2023-07-13T01:57:04;17.90;68.70
49777;DHT22;35673;51.482;7.436;2023-07-13T01:59:29;17.80;68.00
49777;DHT22;35673;51.482;7.436;2023-07-13T02:01:55;17.80;68.10
49777;DHT22;35673;51.482;7.436;2023-07-13T02:04:20;17.80;68.30
49777;DHT22;35673;51.482;7.436;2023-07-13T02:06:46;17.80;68.50
49777;DHT22;35673;51.482;7.436;2023-07-13T02:09:11;17.80;68.50
49777;DHT22;35673;51.482;7.436;2023-07-13T02:11:37;17.80;69.00
49777;DHT22;35673;51.482;7.436;2023-07-13T02:14:02;17.70;69.10
49777;DHT22;35673;51.482;7.436;2023-07-13T02:16:29;17.70;69.00
49777;DHT22;35673;51.482;7.436;2023-07-13T02:18:54;17.70;69.00
49777;DHT22;35673;51.482;7.436;2023-07-13T02:21:21;17.70;68.20
49777;DHT22;35673;51.482;7.436;2023-07-13T02:23:47;17.60;69.00
49777;DHT22;35673;51.482;7.436;2023-07-13T02:26:12;17.60;69.10
49777;DHT22;35673;51.482;7.436;2023-07-13T02:28:38;17.60;68.90
49777;DHT22;35673;51.482;7.436;2023-07-13T02:31:04;17.60;68.10
49777;DHT22;35673;51.482;7.436;2023-07-13T02:33:30;17.60;69.30
49777;DHT22;35673;51.482;7.436;2023-07-13T02:35:55;17.70;68.80
49777;DHT22;35673;51.482;7.436;2023-07-13T02:38:21;17.70;69.20
49777;DHT22;35673;51.482;7.436;2023-07-13T02:40:46;17.80;69.20
49777;DHT22;35673;51.482;7.436;2023-07-13T02:43:12;17.80;68.90
49777;DHT22;35673;51.482;7.436;2023-07-13T02:45:37;17.80;69.10
49777;DHT22;35673;51.482;7.436;2023-07-13T02:48:04;17.80;68.30
49777;DHT22;35673;51.482;7.436;2023-07-13T02:50:30;17.80;69.10
49777;DHT22;35673;51.482;7.436;2023-07-13T02:52:55;17.80;69.00
49777;DHT22;35673;51.482;7.436;2023-07-13T02:55:21;17.70;69.10
49777;DHT22;35673;51.482;7.436;2023-07-13T02:57:46;17.60;69.00
49777;DHT22;35673;51.482;7.436;2023-07-13T03:00:12;17.60;69.10
49777;DHT22;35673;51.482;7.436;2023-07-13T03:02:38;17.60;69.50
49777;DHT22;35673;51.482;7.436;2023-07-13T03:05:04;17.60;69.10
49777;DHT22;35673;51.482;7.436;2023-07-13T03:07:30;17.60;69.40
49777;DHT22;35673;51.482;7.436;2023-07-13T03:09:56;17.60;70.00
49777;DHT22;35673;51.482;7.436;2023-07-13T03:12:22;17.70;69.50
49777;DHT22;35673;51.482;7.436;2023-07-13T03:14:48;17.70;69.80
49777;DHT22;35673;51.482;7.436;2023-07-13T03:17:13;17.70;69.80
49777;DHT22;35673;51.482;7.436;2023-07-13T03:19:39;17.70;69.60
49777;DHT22;35673;51.482;7.436;2023-07-13T03:22:04;17.70;69.70
49777;DHT22;35673;51.482;7.436;2023-07-13T03:24:32;17.70;69.70
49777;DHT22;35673;51.482;7.436;2023-07-13T03:26:57;17.70;69.70
49777;DHT22;35673;51.482;7.436;2023-07-13T03:29:23;17.70;69.70
49777;DHT22;35673;51.482;7.436;2023-07-13T03:31:48;17.50;69.80
49777;DHT22;35673;51.482;7.436;2023-07-13T03:34:14;17.50;69.60
49777;DHT22;35673;51.482;7.436;2023-07-13T03:36:39;17.40;70.10
49777;DHT22;35673;51.482;7.436;2023-07-13T03:39:05;17.40;70.30
49777;DHT22;35673;51.482;7.436;2023-07-13T03:41:33;17.50;70.40
49777;DHT22;35673;51.482;7.436;2023-07-13T03:43:59;17.40;70.10
49777;DHT22;35673;51.482;7.436;2023-07-13T03:46:24;17.40;70.80
49777;DHT22;35673;51.482;7.436;2023-07-13T03:48:50;17.40;70.80
49777;DHT22;35673;51.482;7.436;2023-07-13T03:51:16;17.40;70.50
49777;DHT22;35673;51.482;7.436;2023-07-13T03:53:42;17.30;70.60
49777;DHT22;35673;51.482;7.436;2023-07-13T03:56:08;17.20;68.70
49777;DHT22;35673;51.482;7.436;2023-07-13T03:58:34;17.10;71.10
49777;DHT22;35673;51.482;7.436;2023-07-13T04:01:01;17.10;71.90
49777;DHT22;35673;51.482;7.436;2023-07-13T04:03:28;17.10;71.80
49777;DHT22;35673;51.482;7.436;2023-07-13T04:05:54;17.10;71.90
49777;DHT22;35673;51.482;7.436;2023-07-13T04:08:28;17.20;71.90
49777;DHT22;35673;51.482;7.436;2023-07-13T04:10:54;17.30;72.00
49777;DHT22;35673;51.482;7.436;2023-07-13T04:13:20;17.20;70.40
49777;DHT22;35673;51.482;7.436;2023-07-13T04:15:46;17.10;71.90
49777;DHT22;35673;51.482;7.436;2023-07-13T04:18:11;17.20;71.90
49777;DHT22;35673;51.482;7.436;2023-07-13T04:20:37;17.10;71.10
49777;DHT22;35673;51.482;7.436;2023-07-13T04:23:02;17.10;71.70
49777;DHT22;35673;51.482;7.436;2023-07-13T04:25:28;17.00;72.10
49777;DHT22;35673;51.482;7.436;2023-07-13T04:27:54;16.90;71.10
49777;DHT22;35673;51.482;7.436;2023-07-13T04:30:20;16.90;72.20
49777;DHT22;35673;51.482;7.436;2023-07-13T04:32:45;16.90;72.70
49777;DHT22;35673;51.482;7.436;2023-07-13T04:35:11;17.00;73.10
49777;DHT22;35673;51.482;7.436;2023-07-13T04:37:37;16.90;72.10
49777;DHT22;35673;51.482;7.436;2023-07-13T04:40:02;16.90;72.40
49777;DHT22;35673;51.482;7.436;2023-07-13T04:42:29;16.90;73.00
49777;DHT22;35673;51.482;7.436;2023-07-13T04:44:55;17.00;72.60
49777;DHT22;35673;51.482;7.436;2023-07-13T04:47:20;16.90;72.60
49777;DHT22;35673;51.482;7.436;2023-07-13T04:49:46;17.00;70.10
49777;DHT22;35673;51.482;7.436;2023-07-13T04:52:12;16.90;71.80
49777;DHT22;35673;51.482;7.436;2023-07-13T04:54:37;16.90;72.30
49777;DHT22;35673;51.482;7.436;2023-07-13T04:57:04;16.80;72.80
49777;DHT22;35673;51.482;7.436;2023-07-13T04:59:32;16.80;73.80
49777;DHT22;35673;51.482;7.436;2023-07-13T05:01:57;16.70;75.20
49777;DHT22;35673;51.482;7.436;2023-07-13T05:04:23;16.80;72.40
49777;DHT22;35673;51.482;7.436;2023-07-13T05:06:48;16.70;74.30
49777;DHT22;35673;51.482;7.436;2023-07-13T05:09:14;16.80;75.10
49777;DHT22;35673;51.482;7.436;2023-07-13T05:11:39;16.80;74.50
49777;DHT22;35673;51.482;7.436;2023-07-13T05:14:05;16.90;73.90
49777;DHT22;35673;51.482;7.436;2023-07-13T05:16:30;16.90;74.50
49777;DHT22;35673;51.482;7.436;2023-07-13T05:18:57;16.90;74.60
49777;DHT22;35673;51.482;7.436;2023-07-13T05:21:23;16.80;75.90
49777;DHT22;35673;51.482;7.436;2023-07-13T05:23:49;16.80;75.30
49777;DHT22;35673;51.482;7.436;2023-07-13T05:26:14;16.90;75.60
49777;DHT22;35673;51.482;7.436;2023-07-13T05:28:40;16.90;75.70
49777;DHT22;35673;51.482;7.436;2023-07-13T05:31:07;16.90;76.50
49777;DHT22;35673;51.482;7.436;2023-07-13T05:33:33;17.00;76.10
49777;DHT22;35673;51.482;7.436;2023-07-13T05:35:59;17.00;75.80
49777;DHT22;35673;51.482;7.436;2023-07-13T05:38:26;17.10;75.80
49777;DHT22;35673;51.482;7.436;2023-07-13T05:40:53;17.10;75.40
49777;DHT22;35673;51.482;7.436;2023-07-13T05:43:18;17.20;75.90
49777;DHT22;35673;51.482;7.436;2023-07-13T05:45:44;17.20;75.30
49777;DHT22;35673;51.482;7.436;2023-07-13T05:48:09;17.20;75.60
49777;DHT22;35673;51.482;7.436;2023-07-13T05:50:35;17.20;75.60
49777;DHT22;35673;51.482;7.436;2023-07-13T05:53:00;17.30;75.00
49777;DHT22;35673;51.482;7.436;2023-07-13T05:55:26;17.30;76.60
49777;DHT22;35673;51.482;7.436;2023-07-13T05:57:51;17.60;77.30
49777;DHT22;35673;51.482;7.436;2023-07-13T06:00:17;17.70;77.20
49777;DHT22;35673;51.482;7.436;2023-07-13T06:02:43;17.80;74.50
49777;DHT22;35673;51.482;7.436;2023-07-13T06:05:08;17.80;75.80
49777;DHT22;35673;51.482;7.436;2023-07-13T06:07:34;18.00;74.40
49777;DHT22;35673;51.482;7.436;2023-07-13T06:09:59;18.00;75.30
49777;DHT22;35673;51.482;7.436;2023-07-13T06:12:25;17.80;75.80
49777;DHT22;35673;51.482;7.436;2023-07-13T06:14:51;17.80;76.10
49777;DHT22;35673;51.482;7.436;2023-07-13T06:17:16;17.80;77.20
49777;DHT22;35673;51.482;7.436;2023-07-13T06:19:42;17.70;77.50
49777;DHT22;35673;51.482;7.436;2023-07-13T06:22:07;17.80;76.60
49777;DHT22;35673;51.482;7.436;2023-07-13T06:24:33;17.80;77.10
49777;DHT22;35673;51.482;7.436;2023-07-13T06:26:58;17.90;76.70
49777;DHT22;35673;51.482;7.436;2023-07-13T06:29:24;17.90;79.00
49777;DHT22;35673;51.482;7.436;2023-07-13T06:31:50;17.90;76.80
49777;DHT22;35673;51.482;7.436;2023-07-13T06:34:15;18.00;77.90
49777;DHT22;35673;51.482;7.436;2023-07-13T06:36:41;18.00;77.70
49777;DHT22;35673;51.482;7.436;2023-07-13T06:39:07;17.90;78.50
49777;DHT22;35673;51.482;7.436;2023-07-13T06:41:32;18.00;78.20
49777;DHT22;35673;51.482;7.436;2023-07-13T06:43:58;18.00;78.70
49777;DHT22;35673;51.482;7.436;2023-07-13T06:46:24;18.00;78.30
49777;DHT22;35673;51.482;7.436;2023-07-13T06:48:49;18.00;78.10
49777;DHT22;35673;51.482;7.436;2023-07-13T06:51:15;18.00;78.50
49777;DHT22;35673;51.482;7.436;2023-07-13T06:53:41;17.90;79.00
49777;DHT22;35673;51.482;7.436;2023-07-13T06:56:09;17.80;79.80
49777;DHT22;35673;51.482;7.436;2023-07-13T06:58:35;17.80;79.80
49777;DHT22;35673;51.482;7.436;2023-07-13T07:01:01;17.90;79.90
49777;DHT22;35673;51.482;7.436;2023-07-13T07:03:26;17.90;80.00
49777;DHT22;35673;51.482;7.436;2023-07-13T07:05:52;18.10;79.60
49777;DHT22;35673;51.482;7.436;2023-07-13T07:08:18;18.20;78.90
49777;DHT22;35673;51.482;7.436;2023-07-13T07:10:44;18.30;79.40
49777;DHT22;35673;51.482;7.436;2023-07-13T07:13:10;18.30;80.10
49777;DHT22;35673;51.482;7.436;2023-07-13T07:15:36;18.30;78.90
49777;DHT22;35673;51.482;7.436;2023-07-13T07:18:01;18.40;79.20
49777;DHT22;35673;51.482;7.436;2023-07-13T07:20:27;18.50;79.40
49777;DHT22;35673;51.482;7.436;2023-07-13T07:22:53;18.50;79.00
49777;DHT22;35673;51.482;7.436;2023-07-13T07:25:18;18.70;79.10
49777;DHT22;35673;51.482;7.436;2023-07-13T07:27:45;18.80;78.40
49777;DHT22;35673;51.482;7.436;2023-07-13T07:30:11;18.80;78.40
49777;DHT22;35673;51.482;7.436;2023-07-13T07:32:37;18.80;79.50
49777;DHT22;35673;51.482;7.436;2023-07-13T07:35:03;18.90;79.10
49777;DHT22;35673;51.482;7.436;2023-07-13T07:37:28;18.90;78.30
49777;DHT22;35673;51.482;7.436;2023-07-13T07:39:54;19.00;77.30
49777;DHT22;35673;51.482;7.436;2023-07-13T07:42:20;18.90;77.50
49777;DHT22;35673;51.482;7.436;2023-07-13T07:44:45;18.90;78.00
49777;DHT22;35673;51.482;7.436;2023-07-13T07:47:11;19.10;77.70
49777;DHT22;35673;51.482;7.436;2023-07-13T07:49:37;19.30;77.30
49777;DHT22;35673;51.482;7.436;2023-07-13T07:52:03;19.50;76.90
49777;DHT22;35673;51.482;7.436;2023-07-13T07:54:29;19.60;75.80
49777;DHT22;35673;51.482;7.436;2023-07-13T07:56:55;19.60;76.30
49777;DHT22;35673;51.482;7.436;2023-07-13T07:59:21;19.60;75.90
49777;DHT22;35673;51.482;7.436;2023-07-13T08:01:46;19.50;75.80
49777;DHT22;35673;51.482;7.436;2023-07-13T08:04:13;19.40;76.60
49777;DHT22;35673;51.482;7.436;2023-07-13T08:06:38;19.50;76.60
49777;DHT22;35673;51.482;7.436;2023-07-13T08:09:04;19.60;75.70
49777;DHT22;35673;51.482;7.436;2023-07-13T08:11:37;19.70;76.10
49777;DHT22;35673;51.482;7.436;2023-07-13T08:14:07;19.70;75.80
49777;DHT22;35673;51.482;7.436;2023-07-13T08:16:34;19.70;75.40
49777;DHT22;35673;51.482;7.436;2023-07-13T08:19:01;19.60;75.80
49777;DHT22;35673;51.482;7.436;2023-07-13T08:21:27;19.60;75.50
49777;DHT22;35673;51.482;7.436;2023-07-13T08:23:54;19.60;75.60
49777;DHT22;35673;51.482;7.436;2023-07-13T08:26:19;19.40;76.10
49777;DHT22;35673;51.482;7.436;2023-07-13T08:28:45;19.50;75.50
49777;DHT22;35673;51.482;7.436;2023-07-13T08:31:11;19.70;75.80
49777;DHT22;35673;51.482;7.436;2023-07-13T08:33:36;19.80;75.00
49777;DHT22;35673;51.482;7.436;2023-07-13T08:36:06;19.80;75.20
49777;DHT22;35673;51.482;7.436;2023-07-13T08:38:34;19.70;75.60
49777;DHT22;35673;51.482;7.436;2023-07-13T08:41:00;19.90;76.50
49777;DHT22;35673;51.482;7.436;2023-07-13T08:43:33;20.30;74.80
49777;DHT22;35673;51.482;7.436;2023-07-13T08:48:35;21.00;73.20
49777;DHT22;35673;51.482;7.436;2023-07-13T08:51:04;21.00;73.10
49777;DHT22;35673;51.482;7.436;2023-07-13T08:53:42;21.30;73.30
49777;DHT22;35673;51.482;7.436;2023-07-13T08:56:11;21.30;71.60
49777;DHT22;35673;51.482;7.436;2023-07-13T08:58:40;21.10;72.50
49777;DHT22;35673;51.482;7.436;2023-07-13T09:03:59;20.70;73.30
49777;DHT22;35673;51.482;7.436;2023-07-13T09:06:29;20.50;73.60
49777;DHT22;35673;51.482;7.436;2023-07-13T09:09:08;20.40;73.90
49777;DHT22;35673;51.482;7.436;2023-07-13T09:16:33;20.20;74.10
49777;DHT22;35673;51.482;7.436;2023-07-13T09:19:01;20.30;74.10
49777;DHT22;35673;51.482;7.436;2023-07-13T09:21:36;20.60;73.30
49777;DHT22;35673;51.482;7.436;2023-07-13T09:26:46;20.50;73.30
49777;DHT22;35673;51.482;7.436;2023-07-13T09:29:14;20.40;74.20
49777;DHT22;35673;51.482;7.436;2023-07-13T09:31:46;20.40;73.80
49777;DHT22;35673;51.482;7.436;2023-07-13T09:34:13;20.30;73.90
49777;DHT22;35673;51.482;7.436;2023-07-13T09:36:38;20.30;73.80
49777;DHT22;35673;51.482;7.436;2023-07-13T09:41:36;20.30;74.10
49777;DHT22;35673;51.482;7.436;2023-07-13T09:44:12;20.40;73.70
49777;DHT22;35673;51.482;7.436;2023-07-13T09:46:38;20.40;73.10
49777;DHT22;35673;51.482;7.436;2023-07-13T09:49:05;20.30;73.10
49777;DHT22;35673;51.482;7.436;2023-07-13T09:51:32;20.20;73.20
49777;DHT22;35673;51.482;7.436;2023-07-13T09:53:57;20.40;73.30
49777;DHT22;35673;51.482;7.436;2023-07-13T09:56:24;20.70;72.60
49777;DHT22;35673;51.482;7.436;2023-07-13T09:58:51;20.70;72.50
49777;DHT22;35673;51.482;7.436;2023-07-13T10:01:34;20.90;72.10
49777;DHT22;35673;51.482;7.436;2023-07-13T10:04:00;21.10;71.50
49777;DHT22;35673;51.482;7.436;2023-07-13T10:06:26;20.90;72.50
49777;DHT22;35673;51.482;7.436;2023-07-13T10:08:51;21.10;72.00
49777;DHT22;35673;51.482;7.436;2023-07-13T10:11:22;21.20;71.80
49777;DHT22;35673;51.482;7.436;2023-07-13T10:13:52;21.30;71.60
49777;DHT22;35673;51.482;7.436;2023-07-13T10:16:20;21.50;71.00
49777;DHT22;35673;51.482;7.436;2023-07-13T10:18:51;21.70;70.80
49777;DHT22;35673;51.482;7.436;2023-07-13T10:21:19;21.80;70.70
49777;DHT22;35673;51.482;7.436;2023-07-13T10:23:50;22.00;70.20
49777;DHT22;35673;51.482;7.436;2023-07-13T10:26:23;22.00;69.30
49777;DHT22;35673;51.482;7.436;2023-07-13T10:28:54;21.90;69.60
49777;DHT22;35673;51.482;7.436;2023-07-13T10:31:21;21.80;69.60
49777;DHT22;35673;51.482;7.436;2023-07-13T10:33:48;21.60;69.80
49777;DHT22;35673;51.482;7.436;2023-07-13T10:36:16;21.80;69.50
49777;DHT22;35673;51.482;7.436;2023-07-13T10:38:43;22.10;69.40
49777;DHT22;35673;51.482;7.436;2023-07-13T10:41:13;22.20;68.60
49777;DHT22;35673;51.482;7.436;2023-07-13T10:46:06;22.10;68.50
49777;DHT22;35673;51.482;7.436;2023-07-13T10:48:33;21.90;68.80
49777;DHT22;35673;51.482;7.436;2023-07-13T10:50:59;21.90;69.20
49777;DHT22;35673;51.482;7.436;2023-07-13T10:53:30;22.00;69.10
49777;DHT22;35673;51.482;7.436;2023-07-13T10:56:00;22.10;68.80
49777;DHT22;35673;51.482;7.436;2023-07-13T10:58:31;22.20;68.30
49777;DHT22;35673;51.482;7.436;2023-07-13T11:03:26;22.30;68.40
49777;DHT22;35673;51.482;7.436;2023-07-13T11:06:03;22.40;68.10
49777;DHT22;35673;51.482;7.436;2023-07-13T11:10:56;22.50;67.20
49777;DHT22;35673;51.482;7.436;2023-07-13T11:16:12;22.10;67.80
49777;DHT22;35673;51.482;7.436;2023-07-13T11:18:38;22.00;68.10
49777;DHT22;35673;51.482;7.436;2023-07-13T11:21:14;22.10;68.60
49777;DHT22;35673;51.482;7.436;2023-07-13T11:23:44;22.10;67.90
49777;DHT22;35673;51.482;7.436;2023-07-13T11:28:54;22.00;67.50
49777;DHT22;35673;51.482;7.436;2023-07-13T11:31:19;22.00;67.80
49777;DHT22;35673;51.482;7.436;2023-07-13T11:33:52;22.10;67.70
49777;DHT22;35673;51.482;7.436;2023-07-13T11:36:19;22.10;67.90
49777;DHT22;35673;51.482;7.436;2023-07-13T11:42:08;22.40;67.60
49777;DHT22;35673;51.482;7.436;2023-07-13T11:44:17;22.60;66.50
49777;DHT22;35673;51.482;7.436;2023-07-13T11:46:50;22.50;66.30
49777;DHT22;35673;51.482;7.436;2023-07-13T11:49:17;22.60;66.20
49777;DHT22;35673;51.482;7.436;2023-07-13T11:51:43;22.70;64.90
49777;DHT22;35673;51.482;7.436;2023-07-13T11:54:20;22.70;65.80
49777;DHT22;35673;51.482;7.436;2023-07-13T11:56:48;22.90;65.60
49777;DHT22;35673;51.482;7.436;2023-07-13T11:59:15;23.00;64.10
49777;DHT22;35673;51.482;7.436;2023-07-13T12:01:42;22.90;64.40
49777;DHT22;35673;51.482;7.436;2023-07-13T12:04:10;22.90;64.60
49777;DHT22;35673;51.482;7.436;2023-07-13T12:06:42;22.80;64.80
49777;DHT22;35673;51.482;7.436;2023-07-13T12:09:12;22.80;65.30
49777;DHT22;35673;51.482;7.436;2023-07-13T12:11:40;22.90;65.30
49777;DHT22;35673;51.482;7.436;2023-07-13T12:14:06;23.00;64.70
49777;DHT22;35673;51.482;7.436;2023-07-13T12:16:32;23.10;63.70
49777;DHT22;35673;51.482;7.436;2023-07-13T12:19:02;23.10;62.90
49777;DHT22;35673;51.482;7.436;2023-07-13T12:21:30;23.10;62.40
49777;DHT22;35673;51.482;7.436;2023-07-13T12:23:56;23.10;62.80
49777;DHT22;35673;51.482;7.436;2023-07-13T12:26:21;23.20;62.70
49777;DHT22;35673;51.482;7.436;2023-07-13T12:28:48;23.40;62.80
49777;DHT22;35673;51.482;7.436;2023-07-13T12:31:48;23.60;62.50
49777;DHT22;35673;51.482;7.436;2023-07-13T12:34:10;23.80;61.70
49777;DHT22;35673;51.482;7.436;2023-07-13T12:39:18;23.70;60.30
49777;DHT22;35673;51.482;7.436;2023-07-13T12:41:44;23.70;60.50
49777;DHT22;35673;51.482;7.436;2023-07-13T12:44:14;23.60;61.80
49777;DHT22;35673;51.482;7.436;2023-07-13T12:46:50;23.70;60.60
49777;DHT22;35673;51.482;7.436;2023-07-13T12:49:18;23.80;60.40
49777;DHT22;35673;51.482;7.436;2023-07-13T12:51:49;23.90;60.70
49777;DHT22;35673;51.482;7.436;2023-07-13T12:54:16;24.10;60.30
49777;DHT22;35673;51.482;7.436;2023-07-13T12:56:42;24.10;60.30
49777;DHT22;35673;51.482;7.436;2023-07-13T12:59:08;24.20;60.20
49777;DHT22;35673;51.482;7.436;2023-07-13T13:01:38;24.60;59.20
49777;DHT22;35673;51.482;7.436;2023-07-13T13:04:04;25.00;58.40
49777;DHT22;35673;51.482;7.436;2023-07-13T13:06:34;25.60;57.50
49777;DHT22;35673;51.482;7.436;2023-07-13T13:09:01;25.80;57.50
49777;DHT22;35673;51.482;7.436;2023-07-13T13:11:27;25.90;57.20
49777;DHT22;35673;51.482;7.436;2023-07-13T13:13:53;26.80;56.80
49777;DHT22;35673;51.482;7.436;2023-07-13T13:18:45;27.50;54.90
49777;DHT22;35673;51.482;7.436;2023-07-13T13:21:11;26.40;55.10
49777;DHT22;35673;51.482;7.436;2023-07-13T13:30:54;29.40;81.40
49777;DHT22;35673;51.482;7.436;2023-07-13T13:33:21;27.80;54.50
49777;DHT22;35673;51.482;7.436;2023-07-13T13:35:47;26.80;55.80
49777;DHT22;35673;51.482;7.436;2023-07-13T13:38:13;25.80;55.70
49777;DHT22;35673;51.482;7.436;2023-07-13T13:40:40;25.40;56.40
49777;DHT22;35673;51.482;7.436;2023-07-13T13:43:16;24.80;57.60
49777;DHT22;35673;51.482;7.436;2023-07-13T13:45:43;24.20;58.10
49777;DHT22;35673;51.482;7.436;2023-07-13T13:48:19;23.90;58.70
49777;DHT22;35673;51.482;7.436;2023-07-13T13:50:44;23.80;59.20
49777;DHT22;35673;51.482;7.436;2023-07-13T13:53:11;23.40;61.10
49777;DHT22;35673;51.482;7.436;2023-07-13T13:55:37;23.00;62.30
49777;DHT22;35673;51.482;7.436;2023-07-13T13:58:03;22.70;62.80
49777;DHT22;35673;51.482;7.436;2023-07-13T14:00:29;22.50;63.40
49777;DHT22;35673;51.482;7.436;2023-07-13T14:02:55;22.30;65.00
49777;DHT22;35673;51.482;7.436;2023-07-13T14:05:22;22.20;65.20
49777;DHT22;35673;51.482;7.436;2023-07-13T14:07:48;22.10;67.30
49777;DHT22;35673;51.482;7.436;2023-07-13T14:10:16;22.10;69.00
49777;DHT22;35673;51.482;7.436;2023-07-13T14:12:42;22.30;68.60
49777;DHT22;35673;51.482;7.436;2023-07-13T14:15:14;22.70;68.40
49777;DHT22;35673;51.482;7.436;2023-07-13T14:17:42;23.10;66.60
49777;DHT22;35673;51.482;7.436;2023-07-13T14:20:12;23.00;66.80
49777;DHT22;35673;51.482;7.436;2023-07-13T14:22:38;22.80;66.80
49777;DHT22;35673;51.482;7.436;2023-07-13T14:25:04;22.80;67.10
49777;DHT22;35673;51.482;7.436;2023-07-13T14:27:30;22.80;67.10
49777;DHT22;35673;51.482;7.436;2023-07-13T14:29:55;23.10;67.10
49777;DHT22;35673;51.482;7.436;2023-07-13T14:32:21;23.40;65.60
49777;DHT22;35673;51.482;7.436;2023-07-13T14:34:46;23.70;65.20
49777;DHT22;35673;51.482;7.436;2023-07-13T14:37:13;25.10;64.20
49777;DHT22;35673;51.482;7.436;2023-07-13T14:39:39;27.60;62.50
49777;DHT22;35673;51.482;7.436;2023-07-13T14:42:08;28.90;58.70
49777;DHT22;35673;51.482;7.436;2023-07-13T14:44:33;29.10;56.60
49777;DHT22;35673;51.482;7.436;2023-07-13T14:47:00;28.60;56.20
49777;DHT22;35673;51.482;7.436;2023-07-13T14:49:36;27.10;56.90
49777;DHT22;35673;51.482;7.436;2023-07-13T14:52:09;25.70;59.20
49777;DHT22;35673;51.482;7.436;2023-07-13T14:54:36;24.70;60.70
49777;DHT22;35673;51.482;7.436;2023-07-13T14:57:08;24.10;62.60
49777;DHT22;35673;51.482;7.436;2023-07-13T14:59:34;23.50;64.80
49777;DHT22;35673;51.482;7.436;2023-07-13T15:01:59;22.90;70.30
49777;DHT22;35673;51.482;7.436;2023-07-13T15:04:25;22.80;72.80
49777;DHT22;35673;51.482;7.436;2023-07-13T15:06:54;22.40;75.00
49777;DHT22;35673;51.482;7.436;2023-07-13T15:09:20;22.30;72.60
49777;DHT22;35673;51.482;7.436;2023-07-13T15:11:45;22.10;74.80
49777;DHT22;35673;51.482;7.436;2023-07-13T15:14:11;22.20;76.10
49777;DHT22;35673;51.482;7.436;2023-07-13T15:16:36;22.60;75.70
49777;DHT22;35673;51.482;7.436;2023-07-13T15:19:02;22.70;77.20
49777;DHT22;35673;51.482;7.436;2023-07-13T15:21:28;22.80;76.70
49777;DHT22;35673;51.482;7.436;2023-07-13T15:23:59;22.80;76.60
49777;DHT22;35673;51.482;7.436;2023-07-13T15:26:25;22.90;76.30
49777;DHT22;35673;51.482;7.436;2023-07-13T15:28:51;23.00;76.60
49777;DHT22;35673;51.482;7.436;2023-07-13T15:31:18;24.40;76.20
49777;DHT22;35673;51.482;7.436;2023-07-13T15:33:44;27.40;69.10
49777;DHT22;35673;51.482;7.436;2023-07-13T15:45:55;31.20;64.40
49777;DHT22;35673;51.482;7.436;2023-07-13T15:48:22;29.10;66.40
49777;DHT22;35673;51.482;7.436;2023-07-13T15:50:48;27.50;70.40
49777;DHT22;35673;51.482;7.436;2023-07-13T15:53:16;26.70;74.30
49777;DHT22;35673;51.482;7.436;2023-07-13T15:55:44;25.90;77.20
49777;DHT22;35673;51.482;7.436;2023-07-13T15:58:11;25.30;76.00
49777;DHT22;35673;51.482;7.436;2023-07-13T16:00:37;24.50;77.10
49777;DHT22;35673;51.482;7.436;2023-07-13T16:03:02;24.30;79.70
49777;DHT22;35673;51.482;7.436;2023-07-13T16:05:28;23.70;81.20
49777;DHT22;35673;51.482;7.436;2023-07-13T16:07:53;23.50;71.10
49777;DHT22;35673;51.482;7.436;2023-07-13T16:10:21;23.20;71.50
49777;DHT22;35673;51.482;7.436;2023-07-13T16:12:47;23.00;72.40
49777;DHT22;35673;51.482;7.436;2023-07-13T16:15:14;22.70;72.70
49777;DHT22;35673;51.482;7.436;2023-07-13T16:17:41;22.50;73.40
49777;DHT22;35673;51.482;7.436;2023-07-13T16:20:07;22.40;74.90
49777;DHT22;35673;51.482;7.436;2023-07-13T16:25:12;21.20;73.50
49777;DHT22;35673;51.482;7.436;2023-07-13T16:27:37;20.60;80.60
49777;DHT22;35673;51.482;7.436;2023-07-13T16:30:14;20.30;83.10
49777;DHT22;35673;51.482;7.436;2023-07-13T16:40:00;20.10;92.50
49777;DHT22;35673;51.482;7.436;2023-07-13T16:42:26;20.10;91.90
49777;DHT22;35673;51.482;7.436;2023-07-13T16:44:52;20.00;92.70
49777;DHT22;35673;51.482;7.436;2023-07-13T16:47:19;19.90;92.10